createdAt,value
2023-05-21T00:00:16.008Z,94853.00
2023-05-21T00:01:15.965Z,94855.00
2023-05-21T00:02:16.011Z,94849.00
2023-05-21T00:03:16.112Z,94851.00
2023-05-21T00:04:16.016Z,94850.00
2023-05-21T00:05:16.024Z,94851.00
2023-05-21T00:06:16.159Z,94855.00
2023-05-21T00:07:16.034Z,94854.00
2023-05-21T00:08:16.046Z,94853.00
2023-05-21T00:09:16.096Z,94853.00
2023-05-21T00:10:16.121Z,94854.00
2023-05-21T00:11:16.119Z,94854.00
2023-05-21T00:12:16.146Z,94854.00
2023-05-21T00:13:16.138Z,94855.00
2023-05-21T00:14:16.142Z,94856.00
2023-05-21T00:15:16.205Z,94857.00
2023-05-21T00:16:16.205Z,94853.00
2023-05-21T00:17:16.214Z,94852.00
2023-05-21T00:18:16.245Z,94849.00
2023-05-21T00:19:16.290Z,94850.00
2023-05-21T00:20:16.251Z,94848.00
2023-05-21T00:21:16.228Z,94850.00
2023-05-21T00:22:16.244Z,94851.00
2023-05-21T00:23:16.311Z,94852.00
2023-05-21T00:24:16.316Z,94853.00
2023-05-21T00:25:16.335Z,94852.00
2023-05-21T00:26:16.340Z,94851.00
2023-05-21T00:27:16.335Z,94852.00
2023-05-21T00:28:16.348Z,94852.00
2023-05-21T00:29:16.399Z,94853.00
2023-05-21T00:30:16.402Z,94853.00
2023-05-21T00:31:16.451Z,94854.00
2023-05-21T00:32:16.423Z,94853.00
2023-05-21T00:33:16.424Z,94855.00
2023-05-21T00:34:16.480Z,94855.00
2023-05-21T00:35:16.521Z,94854.00
2023-05-21T00:36:16.466Z,94853.00
2023-05-21T00:37:16.479Z,94852.00
2023-05-21T00:38:16.502Z,94852.00
2023-05-21T00:39:16.523Z,94853.00
2023-05-21T00:40:16.574Z,94850.00
2023-05-21T00:41:16.545Z,94850.00
2023-05-21T00:42:16.586Z,94849.00
2023-05-21T00:43:16.629Z,94848.00
2023-05-21T00:44:16.624Z,94846.00
2023-05-21T00:45:16.657Z,94848.00
2023-05-21T00:46:16.769Z,94848.00
2023-05-21T00:47:16.658Z,94845.00
2023-05-21T00:48:16.678Z,94848.00
2023-05-21T00:49:16.742Z,94849.00
2023-05-21T00:50:16.740Z,94850.00
2023-05-21T00:51:16.744Z,94850.00
2023-05-21T00:52:16.800Z,94850.00
2023-05-21T00:53:16.808Z,94850.00
2023-05-21T00:54:16.822Z,94851.00
2023-05-21T00:55:16.860Z,94850.00
2023-05-21T00:56:16.882Z,94851.00
2023-05-21T00:57:16.895Z,94851.00
2023-05-21T00:58:16.906Z,94852.00
2023-05-21T00:59:16.897Z,94851.00
2023-05-21T01:00:16.957Z,94852.00
2023-05-21T01:01:16.992Z,94855.00
2023-05-21T01:02:17.032Z,94858.00
2023-05-21T01:03:17.140Z,94859.00
2023-05-21T01:04:16.972Z,94855.00
2023-05-21T01:05:17.006Z,94852.00
2023-05-21T01:06:17.006Z,94850.00
2023-05-21T01:07:16.998Z,94849.00
2023-05-21T01:08:17.020Z,94850.00
2023-05-21T01:09:17.080Z,94851.00
2023-05-21T01:10:17.096Z,94848.00
2023-05-21T01:11:17.121Z,94843.00
2023-05-21T01:12:17.144Z,94844.00
2023-05-21T01:13:17.188Z,94843.00
2023-05-21T01:14:17.166Z,94844.00
2023-05-21T01:15:17.187Z,94845.00
2023-05-21T01:16:17.207Z,94846.00
2023-05-21T01:17:17.229Z,94845.00
2023-05-21T01:18:17.305Z,94843.00
2023-05-21T01:19:17.392Z,94841.00
2023-05-21T01:20:17.284Z,94836.00
2023-05-21T01:21:17.419Z,94835.00
2023-05-21T01:22:17.333Z,94830.00
2023-05-21T01:23:17.341Z,94833.00
2023-05-21T01:24:17.407Z,94838.00
2023-05-21T01:25:17.433Z,94843.00
2023-05-21T01:26:17.530Z,94838.00
2023-05-21T01:27:17.551Z,94838.00
2023-05-21T01:28:17.625Z,94837.00
2023-05-21T01:29:17.647Z,94838.00
2023-05-21T01:30:17.697Z,94839.00
2023-05-21T01:31:17.717Z,94840.00
2023-05-21T01:32:17.773Z,94840.00
2023-05-21T01:33:17.884Z,94838.00
2023-05-21T01:34:17.859Z,94837.00
2023-05-21T01:35:17.932Z,94838.00
2023-05-21T01:36:17.942Z,94833.00
2023-05-21T01:37:18.012Z,94829.00
2023-05-21T01:38:18.091Z,94827.00
2023-05-21T01:39:18.115Z,94830.00
2023-05-21T01:40:18.172Z,94831.00
2023-05-21T01:41:18.173Z,94834.00
2023-05-21T01:42:18.257Z,94833.00
2023-05-21T01:43:18.303Z,94834.00
2023-05-21T01:44:18.348Z,94833.00
2023-05-21T01:45:18.393Z,94831.00
2023-05-21T01:46:18.447Z,94830.00
2023-05-21T01:47:18.490Z,94829.00
2023-05-21T01:48:18.546Z,94827.00
2023-05-21T01:49:18.578Z,94826.00
2023-05-21T01:50:18.686Z,94827.00
2023-05-21T01:51:18.681Z,94829.00
2023-05-21T01:52:18.718Z,94827.00
2023-05-21T01:53:18.741Z,94827.00
2023-05-21T01:54:18.799Z,94822.00
2023-05-21T01:55:18.881Z,94821.00
2023-05-21T01:56:18.897Z,94819.00
2023-05-21T01:57:18.958Z,94822.00
2023-05-21T01:58:18.975Z,94823.00
2023-05-21T01:59:19.067Z,94824.00
2023-05-21T02:00:19.107Z,94828.00
2023-05-21T02:01:19.218Z,94833.00
2023-05-21T02:02:19.202Z,94837.00
2023-05-21T02:03:19.313Z,94837.00
2023-05-21T02:04:19.285Z,94834.00
2023-05-21T02:05:19.339Z,94832.00
2023-05-21T02:06:19.370Z,94827.00
2023-05-21T02:07:19.450Z,94826.00
2023-05-21T02:08:19.502Z,94826.00
2023-05-21T02:09:19.508Z,94826.00
2023-05-21T02:10:19.597Z,94828.00
2023-05-21T02:11:19.616Z,94833.00
2023-05-21T02:12:19.672Z,94837.00
2023-05-21T02:13:19.712Z,94839.00
2023-05-21T02:14:19.764Z,94837.00
2023-05-21T02:15:19.829Z,94837.00
2023-05-21T02:16:19.947Z,94837.00
2023-05-21T02:17:19.908Z,94839.00
2023-05-21T02:18:19.959Z,94841.00
2023-05-21T02:19:20.029Z,94840.00
2023-05-21T02:20:20.061Z,94841.00
2023-05-21T02:21:20.109Z,94840.00
2023-05-21T02:22:20.137Z,94841.00
2023-05-21T02:23:20.212Z,94839.00
2023-05-21T02:24:20.269Z,94839.00
2023-05-21T02:25:20.310Z,94836.00
2023-05-21T02:26:20.365Z,94835.00
2023-05-21T02:27:20.437Z,94836.00
2023-05-21T02:28:20.455Z,94835.00
2023-05-21T02:29:20.510Z,94838.00
2023-05-21T02:30:20.563Z,94837.00
2023-05-21T02:31:20.618Z,94833.00
2023-05-21T02:32:20.663Z,94829.00
2023-05-21T02:33:20.704Z,94831.00
2023-05-21T02:34:20.892Z,94832.00
2023-05-21T02:35:20.792Z,94832.00
2023-05-21T02:36:20.824Z,94830.00
2023-05-21T02:37:20.866Z,94827.00
2023-05-21T02:38:20.913Z,94824.00
2023-05-21T02:39:20.980Z,94822.00
2023-05-21T02:40:21.024Z,94818.00
2023-05-21T02:41:21.057Z,94817.00
2023-05-21T02:42:21.110Z,94815.00
2023-05-21T02:43:21.168Z,94817.00
2023-05-21T02:44:21.239Z,94815.00
2023-05-21T02:45:21.285Z,94816.00
2023-05-21T02:46:21.344Z,94814.00
2023-05-21T02:47:21.355Z,94813.00
2023-05-21T02:48:21.364Z,94810.00
2023-05-21T02:49:21.459Z,94810.00
2023-05-21T02:50:21.496Z,94810.00
2023-05-21T02:51:21.533Z,94808.00
2023-05-21T02:52:21.577Z,94809.00
2023-05-21T02:53:21.642Z,94812.00
2023-05-21T02:54:21.689Z,94812.00
2023-05-21T02:55:21.746Z,94814.00
2023-05-21T02:56:21.750Z,94818.00
2023-05-21T02:57:21.819Z,94817.00
2023-05-21T02:58:21.894Z,94820.00
2023-05-21T02:59:21.895Z,94816.00
2023-05-21T03:00:21.982Z,94816.00
2023-05-21T03:01:22.052Z,94822.00
2023-05-21T03:02:22.146Z,94825.00
2023-05-21T03:03:22.180Z,94826.00
2023-05-21T03:04:22.133Z,94827.00
2023-05-21T03:05:22.208Z,94825.00
2023-05-21T03:06:22.230Z,94830.00
2023-05-21T03:07:22.312Z,94829.00
2023-05-21T03:08:22.327Z,94831.00
2023-05-21T03:09:22.346Z,94826.00
2023-05-21T03:10:22.425Z,94824.00
2023-05-21T03:11:22.469Z,94826.00
2023-05-21T03:12:22.550Z,94833.00
2023-05-21T03:13:22.595Z,94835.00
2023-05-21T03:14:22.589Z,94834.00
2023-05-21T03:15:22.681Z,94832.00
2023-05-21T03:16:22.812Z,94827.00
2023-05-21T03:17:22.770Z,94824.00
2023-05-21T03:18:22.821Z,94825.00
2023-05-21T03:19:22.884Z,94826.00
2023-05-21T03:20:22.930Z,94828.00
2023-05-21T03:21:22.951Z,94829.00
2023-05-21T03:22:23.012Z,94832.00
2023-05-21T03:23:23.069Z,94836.00
2023-05-21T03:24:23.078Z,94838.00
2023-05-21T03:25:23.165Z,94837.00
2023-05-21T03:26:23.224Z,94829.00
2023-05-21T03:27:23.249Z,94816.00
2023-05-21T03:28:23.296Z,94813.00
2023-05-21T03:29:23.349Z,94819.00
2023-05-21T03:30:23.403Z,94826.00
2023-05-21T03:31:23.466Z,94833.00
2023-05-21T03:32:23.496Z,94836.00
2023-05-21T03:33:23.527Z,94837.00
2023-05-21T03:34:23.592Z,94835.00
2023-05-21T03:35:23.662Z,94835.00
2023-05-21T03:36:23.725Z,94838.00
2023-05-21T03:37:23.720Z,94837.00
2023-05-21T03:38:23.783Z,94838.00
2023-05-21T03:39:23.808Z,94835.00
2023-05-21T03:40:23.892Z,94834.00
2023-05-21T03:41:23.940Z,94833.00
2023-05-21T03:42:23.982Z,94837.00
2023-05-21T03:43:24.008Z,94841.00
2023-05-21T03:44:24.812Z,94849.00
2023-05-21T03:45:24.123Z,94850.00
2023-05-21T03:46:24.200Z,94843.00
2023-05-21T03:47:24.261Z,94841.00
2023-05-21T03:48:24.252Z,94842.00
2023-05-21T03:49:24.328Z,94845.00
2023-05-21T03:50:24.358Z,94848.00
2023-05-21T03:51:24.416Z,94847.00
2023-05-21T03:52:24.488Z,94842.00
2023-05-21T03:53:24.544Z,94840.00
2023-05-21T03:54:24.624Z,94844.00
2023-05-21T03:55:24.709Z,94842.00
2023-05-21T03:56:24.680Z,94842.00
2023-05-21T03:57:24.771Z,94840.00
2023-05-21T03:58:24.807Z,94838.00
2023-05-21T03:59:24.865Z,94836.00
2023-05-21T04:00:24.923Z,94835.00
2023-05-21T04:01:24.991Z,94836.00
2023-05-21T04:02:25.078Z,94840.00
2023-05-21T04:03:25.288Z,94843.00
2023-05-21T04:04:25.164Z,94846.00
2023-05-21T04:05:25.181Z,94846.00
2023-05-21T04:06:25.266Z,94850.00
2023-05-21T04:07:25.305Z,94854.00
2023-05-21T04:08:25.350Z,94852.00
2023-05-21T04:09:25.385Z,94850.00
2023-05-21T04:10:25.495Z,94846.00
2023-05-21T04:11:25.567Z,94849.00
2023-05-21T04:12:25.545Z,94858.00
2023-05-21T04:13:25.615Z,94864.00
2023-05-21T04:14:25.663Z,94867.00
2023-05-21T04:15:25.708Z,94865.00
2023-05-21T04:16:25.894Z,94861.00
2023-05-21T04:17:25.843Z,94858.00
2023-05-21T04:18:25.939Z,94861.00
2023-05-21T04:19:25.939Z,94863.00
2023-05-21T04:20:25.999Z,94871.00
2023-05-21T04:21:26.058Z,94874.00
2023-05-21T04:22:26.113Z,94875.00
2023-05-21T04:23:26.160Z,94873.00
2023-05-21T04:24:26.228Z,94872.00
2023-05-21T04:25:26.284Z,94872.00
2023-05-21T04:26:26.325Z,94875.00
2023-05-21T04:27:26.407Z,94874.00
2023-05-21T04:28:26.436Z,94874.00
2023-05-21T04:29:26.487Z,94873.00
2023-05-21T04:30:27.049Z,94869.00
2023-05-21T04:31:26.672Z,94872.00
2023-05-21T04:32:26.724Z,94875.00
2023-05-21T04:33:26.763Z,94874.00
2023-05-21T04:34:26.815Z,94874.00
2023-05-21T04:35:26.868Z,94872.00
2023-05-21T04:36:26.926Z,94869.00
2023-05-21T04:37:26.959Z,94868.00
2023-05-21T04:38:27.016Z,94864.00
2023-05-21T04:39:27.068Z,94864.00
2023-05-21T04:40:27.178Z,94865.00
2023-05-21T04:41:27.185Z,94866.00
2023-05-21T04:42:27.295Z,94866.00
2023-05-21T04:43:27.353Z,94866.00
2023-05-21T04:44:27.366Z,94864.00
2023-05-21T04:45:27.444Z,94861.00
2023-05-21T04:46:27.617Z,94862.00
2023-05-21T04:47:27.544Z,94861.00
2023-05-21T04:48:27.615Z,94861.00
2023-05-21T04:49:27.695Z,94861.00
2023-05-21T04:50:27.734Z,94860.00
2023-05-21T04:51:27.817Z,94862.00
2023-05-21T04:52:27.840Z,94863.00
2023-05-21T04:53:27.906Z,94862.00
2023-05-21T04:54:28.023Z,94862.00
2023-05-21T04:55:28.030Z,94858.00
2023-05-21T04:56:28.092Z,94856.00
2023-05-21T04:57:28.163Z,94853.00
2023-05-21T04:58:28.183Z,94853.00
2023-05-21T04:59:28.220Z,94856.00
2023-05-21T05:00:28.305Z,94854.00
2023-05-21T05:01:28.377Z,94857.00
2023-05-21T05:02:28.462Z,94859.00
2023-05-21T05:03:28.551Z,94862.00
2023-05-21T05:04:28.529Z,94862.00
2023-05-21T05:05:28.575Z,94860.00
2023-05-21T05:06:28.609Z,94860.00
2023-05-21T05:07:28.631Z,94855.00
2023-05-21T05:08:28.691Z,94854.00
2023-05-21T05:09:28.774Z,94852.00
2023-05-21T05:10:28.823Z,94852.00
2023-05-21T05:11:28.880Z,94852.00
2023-05-21T05:12:28.914Z,94852.00
2023-05-21T05:13:28.964Z,94850.00
2023-05-21T05:14:29.025Z,94848.00
2023-05-21T05:15:29.113Z,94849.00
2023-05-21T05:16:29.179Z,94848.00
2023-05-21T05:17:29.237Z,94847.00
2023-05-21T05:18:29.260Z,94848.00
2023-05-21T05:19:29.492Z,94852.00
2023-05-21T05:20:29.357Z,94850.00
2023-05-21T05:21:29.394Z,94851.00
2023-05-21T05:22:29.530Z,94847.00
2023-05-21T05:23:29.518Z,94844.00
2023-05-21T05:24:29.564Z,94842.00
2023-05-21T05:25:29.625Z,94845.00
2023-05-21T05:26:29.663Z,94849.00
2023-05-21T05:27:29.733Z,94847.00
2023-05-21T05:28:29.756Z,94844.00
2023-05-21T05:29:29.832Z,94843.00
2023-05-21T05:30:29.886Z,94845.00
2023-05-21T05:31:29.986Z,94846.00
2023-05-21T05:32:29.980Z,94847.00
2023-05-21T05:33:30.039Z,94846.00
2023-05-21T05:34:30.062Z,94845.00
2023-05-21T05:35:30.122Z,94845.00
2023-05-21T05:36:30.204Z,94846.00
2023-05-21T05:37:30.228Z,94846.00
2023-05-21T05:38:30.264Z,94844.00
2023-05-21T05:39:30.346Z,94844.00
2023-05-21T05:40:30.425Z,94842.00
2023-05-21T05:41:30.477Z,94840.00
2023-05-21T05:42:30.503Z,94839.00
2023-05-21T05:43:30.529Z,94839.00
2023-05-21T05:44:30.576Z,94836.00
2023-05-21T05:45:30.647Z,94838.00
2023-05-21T05:46:30.723Z,94836.00
2023-05-21T05:47:30.766Z,94839.00
2023-05-21T05:48:30.798Z,94840.00
2023-05-21T05:49:30.873Z,94842.00
2023-05-21T05:50:30.911Z,94838.00
2023-05-21T05:51:30.948Z,94838.00
2023-05-21T05:52:30.992Z,94842.00
2023-05-21T05:53:31.039Z,94841.00
2023-05-21T05:54:31.121Z,94842.00
2023-05-21T05:55:31.135Z,94839.00
2023-05-21T05:56:31.186Z,94837.00
2023-05-21T05:57:31.258Z,94838.00
2023-05-21T05:58:31.294Z,94841.00
2023-05-21T05:59:31.330Z,94841.00
2023-05-21T06:00:31.371Z,94845.00
2023-05-21T06:01:31.402Z,94843.00
2023-05-21T06:02:31.531Z,94845.00
2023-05-21T06:03:31.655Z,94839.00
2023-05-21T06:04:31.567Z,94841.00
2023-05-21T06:05:31.639Z,94840.00
2023-05-21T06:06:31.688Z,94841.00
2023-05-21T06:07:31.726Z,94844.00
2023-05-21T06:08:31.756Z,94845.00
2023-05-21T06:09:31.784Z,94845.00
2023-05-21T06:10:31.869Z,94844.00
2023-05-21T06:11:31.904Z,94844.00
2023-05-21T06:12:31.919Z,94839.00
2023-05-21T06:13:31.990Z,94836.00
2023-05-21T06:14:32.022Z,94831.00
2023-05-21T06:15:32.101Z,94830.00
2023-05-21T06:16:32.185Z,94831.00
2023-05-21T06:17:32.168Z,94831.00
2023-05-21T06:18:32.229Z,94834.00
2023-05-21T06:19:32.353Z,94837.00
2023-05-21T06:20:32.299Z,94837.00
2023-05-21T06:21:32.339Z,94834.00
2023-05-21T06:22:32.397Z,94828.00
2023-05-21T06:23:32.482Z,94823.00
2023-05-21T06:24:32.468Z,94820.00
2023-05-21T06:25:32.509Z,94822.00
2023-05-21T06:26:32.533Z,94821.00
2023-05-21T06:27:32.595Z,94821.00
2023-05-21T06:28:32.643Z,94821.00
2023-05-21T06:29:32.659Z,94819.00
2023-05-21T06:30:32.724Z,94820.00
2023-05-21T06:31:32.766Z,94819.00
2023-05-21T06:32:32.897Z,94818.00
2023-05-21T06:33:32.929Z,94814.00
2023-05-21T06:34:32.929Z,94812.00
2023-05-21T06:35:32.954Z,94811.00
2023-05-21T06:36:32.991Z,94809.00
2023-05-21T06:37:33.008Z,94810.00
2023-05-21T06:38:33.064Z,94810.00
2023-05-21T06:39:33.125Z,94813.00
2023-05-21T06:40:33.189Z,94811.00
2023-05-21T06:41:33.200Z,94812.00
2023-05-21T06:42:33.222Z,94809.00
2023-05-21T06:43:33.240Z,94811.00
2023-05-21T06:44:33.294Z,94810.00
2023-05-21T06:45:33.386Z,94810.00
2023-05-21T06:46:33.482Z,94810.00
2023-05-21T06:47:33.459Z,94808.00
2023-05-21T06:48:33.459Z,94805.00
2023-05-21T06:49:33.539Z,94809.00
2023-05-21T06:50:33.574Z,94811.00
2023-05-21T06:51:33.619Z,94815.00
2023-05-21T06:52:33.634Z,94816.00
2023-05-21T06:53:33.657Z,94815.00
2023-05-21T06:54:33.690Z,94816.00
2023-05-21T06:55:33.778Z,94815.00
2023-05-21T06:56:33.807Z,94815.00
2023-05-21T06:57:33.825Z,94817.00
2023-05-21T06:58:33.873Z,94819.00
2023-05-21T06:59:33.899Z,94820.00
2023-05-21T07:00:33.972Z,94818.00
2023-05-21T07:01:33.991Z,94821.00
2023-05-21T07:02:34.101Z,94822.00
2023-05-21T07:03:34.124Z,94822.00
2023-05-21T07:04:34.080Z,94819.00
2023-05-21T07:05:34.188Z,94817.00
2023-05-21T07:06:34.232Z,94818.00
2023-05-21T07:07:34.212Z,94816.00
2023-05-21T07:08:34.253Z,94815.00
2023-05-21T07:09:34.269Z,94815.00
2023-05-21T07:10:34.344Z,94813.00
2023-05-21T07:11:34.329Z,94810.00
2023-05-21T07:12:34.416Z,94808.00
2023-05-21T07:13:34.420Z,94805.00
2023-05-21T07:14:34.440Z,94808.00
2023-05-21T07:15:34.671Z,94806.00
2023-05-21T07:16:34.563Z,94808.00
2023-05-21T07:17:34.591Z,94807.00
2023-05-21T07:18:34.582Z,94805.00
2023-05-21T07:19:34.662Z,94805.00
2023-05-21T07:20:34.658Z,94805.00
2023-05-21T07:21:34.679Z,94800.00
2023-05-21T07:22:34.696Z,94798.00
2023-05-21T07:23:34.732Z,94798.00
2023-05-21T07:24:34.754Z,94795.00
2023-05-21T07:25:34.926Z,94793.00
2023-05-21T07:26:34.816Z,94792.00
2023-05-21T07:27:34.841Z,94788.00
2023-05-21T07:28:34.874Z,94787.00
2023-05-21T07:29:34.894Z,94786.00
2023-05-21T07:30:34.955Z,94783.00
2023-05-21T07:31:35.013Z,94783.00
2023-05-21T07:32:35.020Z,94782.00
2023-05-21T07:33:35.018Z,94781.00
2023-05-21T07:34:35.069Z,94783.00
2023-05-21T07:35:35.305Z,94782.00
2023-05-21T07:36:35.116Z,94783.00
2023-05-21T07:37:35.185Z,94783.00
2023-05-21T07:38:35.163Z,94782.00
2023-05-21T07:39:35.207Z,94780.00
2023-05-21T07:40:35.293Z,94779.00
2023-05-21T07:41:35.250Z,94776.00
2023-05-21T07:42:35.373Z,94775.00
2023-05-21T07:43:35.336Z,94773.00
2023-05-21T07:44:35.378Z,94773.00
2023-05-21T07:45:35.701Z,94773.00
2023-05-21T07:46:35.449Z,94773.00
2023-05-21T07:47:35.444Z,94776.00
2023-05-21T07:48:35.876Z,94775.00
2023-05-21T07:49:35.489Z,94778.00
2023-05-21T07:50:35.535Z,94778.00
2023-05-21T07:51:35.548Z,94778.00
2023-05-21T07:52:35.589Z,94776.00
2023-05-21T07:53:35.616Z,94771.00
2023-05-21T07:54:35.659Z,94770.00
2023-05-21T07:55:35.926Z,94766.00
2023-05-21T07:56:35.660Z,94762.00
2023-05-21T07:57:35.698Z,94760.00
2023-05-21T07:58:35.756Z,94756.00
2023-05-21T07:59:35.755Z,94756.00
2023-05-21T08:00:35.828Z,94756.00
2023-05-21T08:01:35.849Z,94758.00
2023-05-21T08:02:36.113Z,94758.00
2023-05-21T08:03:36.099Z,94760.00
2023-05-21T08:04:37.966Z,94759.00
2023-05-21T08:05:36.096Z,94760.00
2023-05-21T08:06:35.965Z,94761.00
2023-05-21T08:07:36.007Z,94759.00
2023-05-21T08:08:35.990Z,94758.00
2023-05-21T08:09:36.045Z,94757.00
2023-05-21T08:10:36.097Z,94752.00
2023-05-21T08:11:36.085Z,94754.00
2023-05-21T08:12:36.112Z,94752.00
2023-05-21T08:13:36.112Z,94754.00
2023-05-21T08:14:36.187Z,94753.00
2023-05-21T08:15:36.432Z,94755.00
2023-05-21T08:16:36.216Z,94754.00
2023-05-21T08:17:36.228Z,94755.00
2023-05-21T08:18:36.206Z,94755.00
2023-05-21T08:19:36.247Z,94750.00
2023-05-21T08:20:36.272Z,94750.00
2023-05-21T08:21:36.261Z,94751.00
2023-05-21T08:22:36.283Z,94750.00
2023-05-21T08:23:36.268Z,94752.00
2023-05-21T08:24:36.300Z,94749.00
2023-05-21T08:25:36.715Z,94750.00
2023-05-21T08:26:36.325Z,94749.00
2023-05-21T08:27:36.341Z,94746.00
2023-05-21T08:28:36.392Z,94746.00
2023-05-21T08:29:36.422Z,94744.00
2023-05-21T08:30:36.449Z,94745.00
2023-05-21T08:31:36.467Z,94741.00
2023-05-21T08:32:36.491Z,94741.00
2023-05-21T08:33:36.445Z,94741.00
2023-05-21T08:34:36.492Z,94736.00
2023-05-21T08:35:36.623Z,94735.00
2023-05-21T08:36:36.557Z,94736.00
2023-05-21T08:37:36.523Z,94734.00
2023-05-21T08:38:36.575Z,94732.00
2023-05-21T08:39:36.657Z,94734.00
2023-05-21T08:40:36.572Z,94733.00
2023-05-21T08:41:36.613Z,94731.00
2023-05-21T08:42:37.532Z,94726.00
2023-05-21T08:43:36.609Z,94723.00
2023-05-21T08:44:36.646Z,94725.00
2023-05-21T08:45:36.893Z,94724.00
2023-05-21T08:46:36.662Z,94723.00
2023-05-21T08:47:36.765Z,94725.00
2023-05-21T08:48:36.677Z,94723.00
2023-05-21T08:49:36.728Z,94724.00
2023-05-21T08:50:36.691Z,94724.00
2023-05-21T08:51:36.716Z,94725.00
2023-05-21T08:52:36.720Z,94720.00
2023-05-21T08:53:36.725Z,94720.00
2023-05-21T08:54:36.726Z,94720.00
2023-05-21T08:55:36.903Z,94720.00
2023-05-21T08:56:36.715Z,94718.00
2023-05-21T08:57:36.753Z,94718.00
2023-05-21T08:58:36.751Z,94716.00
2023-05-21T08:59:36.755Z,94721.00
2023-05-21T09:00:36.749Z,94720.00
2023-05-21T09:01:36.779Z,94719.00
2023-05-21T09:02:36.840Z,94719.00
2023-05-21T09:03:36.779Z,94716.00
2023-05-21T09:04:36.850Z,94717.00
2023-05-21T09:05:37.012Z,94715.00
2023-05-21T09:06:36.766Z,94712.00
2023-05-21T09:07:36.779Z,94709.00
2023-05-21T09:08:36.774Z,94709.00
2023-05-21T09:09:36.790Z,94707.00
2023-05-21T09:10:36.812Z,94707.00
2023-05-21T09:11:36.763Z,94707.00
2023-05-21T09:12:36.769Z,94706.00
2023-05-21T09:13:38.837Z,94711.00
2023-05-21T09:14:36.783Z,94715.00
2023-05-21T09:15:37.004Z,94718.00
2023-05-21T09:16:36.835Z,94717.00
2023-05-21T09:17:36.835Z,94718.00
2023-05-21T09:18:36.918Z,94725.00
2023-05-21T09:19:36.881Z,94718.00
2023-05-21T09:20:36.821Z,94709.00
2023-05-21T09:21:36.872Z,94711.00
2023-05-21T09:22:36.846Z,94716.00
2023-05-21T09:23:36.825Z,94726.00
2023-05-21T09:24:36.846Z,94726.00
2023-05-21T09:25:37.004Z,94725.00
2023-05-21T09:26:36.848Z,94724.00
2023-05-21T09:27:36.862Z,94722.00
2023-05-21T09:28:36.903Z,94723.00
2023-05-21T09:29:36.878Z,94726.00
2023-05-21T09:30:37.064Z,94726.00
2023-05-21T09:31:36.943Z,94727.00
2023-05-21T09:32:36.987Z,94727.00
2023-05-21T09:33:36.970Z,94729.00
2023-05-21T09:34:37.097Z,94727.00
2023-05-21T09:35:38.168Z,94728.00
2023-05-21T09:36:36.996Z,94735.00
2023-05-21T09:37:37.022Z,94736.00
2023-05-21T09:38:37.073Z,94731.00
2023-05-21T09:39:37.044Z,94727.00
2023-05-21T09:40:37.214Z,94728.00
2023-05-21T09:41:37.079Z,94730.00
2023-05-21T09:42:37.102Z,94733.00
2023-05-21T09:43:37.128Z,94728.00
2023-05-21T09:44:37.122Z,94731.00
2023-05-21T09:45:39.018Z,94733.00
2023-05-21T09:46:37.208Z,94731.00
2023-05-21T09:47:37.269Z,94732.00
2023-05-21T09:48:37.206Z,94725.00
2023-05-21T09:49:37.197Z,94720.00
2023-05-21T09:50:37.412Z,94720.00
2023-05-21T09:51:37.250Z,94730.00
2023-05-21T09:52:37.272Z,94728.00
2023-05-21T09:53:37.286Z,94726.00
2023-05-21T09:54:37.334Z,94723.00
2023-05-21T09:55:37.325Z,94735.00
2023-05-21T09:56:37.339Z,94732.00
2023-05-21T09:57:37.318Z,94729.00
2023-05-21T09:58:37.310Z,94736.00
2023-05-21T09:59:37.360Z,94735.00
2023-05-21T10:00:37.573Z,94730.00
2023-05-21T10:01:37.484Z,94733.00
2023-05-21T10:02:37.476Z,94730.00
2023-05-21T10:03:37.443Z,94732.00
2023-05-21T10:04:37.552Z,94737.00
2023-05-21T10:05:37.508Z,94731.00
2023-05-21T10:06:37.517Z,94734.00
2023-05-21T10:07:37.540Z,94733.00
2023-05-21T10:08:37.590Z,94732.00
2023-05-21T10:09:37.639Z,94736.00
2023-05-21T10:10:37.928Z,94733.00
2023-05-21T10:11:37.695Z,94731.00
2023-05-21T10:12:37.738Z,94731.00
2023-05-21T10:13:37.733Z,94724.00
2023-05-21T10:14:37.790Z,94730.00
2023-05-21T10:15:37.794Z,94734.00
2023-05-21T10:16:37.928Z,94731.00
2023-05-21T10:17:37.810Z,94729.00
2023-05-21T10:18:37.831Z,94726.00
2023-05-21T10:19:38.463Z,94718.00
2023-05-21T10:20:38.180Z,94724.00
2023-05-21T10:21:37.897Z,94728.00
2023-05-21T10:22:37.957Z,94728.00
2023-05-21T10:23:37.900Z,94728.00
2023-05-21T10:24:37.907Z,94727.00
2023-05-21T10:25:37.916Z,94717.00
2023-05-21T10:26:37.961Z,94719.00
2023-05-21T10:27:37.967Z,94720.00
2023-05-21T10:28:38.014Z,94722.00
2023-05-21T10:29:38.032Z,94714.00
2023-05-21T10:30:38.450Z,94713.00
2023-05-21T10:31:38.075Z,94711.00
2023-05-21T10:32:38.243Z,94718.00
2023-05-21T10:33:38.260Z,94710.00
2023-05-21T10:34:38.178Z,94708.00
2023-05-21T10:35:38.324Z,94706.00
2023-05-21T10:36:38.186Z,94704.00
2023-05-21T10:37:38.233Z,94709.00
2023-05-21T10:38:38.272Z,94708.00
2023-05-21T10:39:38.270Z,94704.00
2023-05-21T10:40:38.401Z,94705.00
2023-05-21T10:41:38.309Z,94706.00
2023-05-21T10:42:38.342Z,94701.00
2023-05-21T10:43:38.365Z,94693.00
2023-05-21T10:44:38.404Z,94698.00
2023-05-21T10:45:38.510Z,94699.00
2023-05-21T10:46:38.692Z,94694.00
2023-05-21T10:47:38.515Z,94695.00
2023-05-21T10:48:38.575Z,94693.00
2023-05-21T10:49:38.579Z,94697.00
2023-05-21T10:50:38.820Z,94693.00
2023-05-21T10:51:38.700Z,94692.00
2023-05-21T10:52:38.726Z,94690.00
2023-05-21T10:53:38.732Z,94688.00
2023-05-21T10:54:38.794Z,94688.00
2023-05-21T10:55:38.859Z,94688.00
2023-05-21T10:56:38.905Z,94695.00
2023-05-21T10:57:38.933Z,94689.00
2023-05-21T10:58:38.967Z,94686.00
2023-05-21T10:59:39.010Z,94686.00
2023-05-21T11:00:39.176Z,94686.00
2023-05-21T11:01:39.294Z,94686.00
2023-05-21T11:02:39.312Z,94692.00
2023-05-21T11:03:39.413Z,94685.00
2023-05-21T11:04:39.361Z,94677.00
2023-05-21T11:05:39.406Z,94686.00
2023-05-21T11:06:39.460Z,94683.00
2023-05-21T11:07:39.500Z,94679.00
2023-05-21T11:08:39.520Z,94672.00
2023-05-21T11:09:39.558Z,94681.00
2023-05-21T11:10:39.915Z,94683.00
2023-05-21T11:11:39.691Z,94683.00
2023-05-21T11:12:39.760Z,94678.00
2023-05-21T11:13:39.820Z,94677.00
2023-05-21T11:14:40.172Z,94677.00
2023-05-21T11:15:39.922Z,94681.00
2023-05-21T11:16:40.044Z,94680.00
2023-05-21T11:17:40.153Z,94683.00
2023-05-21T11:18:40.097Z,94677.00
2023-05-21T11:19:40.284Z,94679.00
2023-05-21T11:20:40.215Z,94678.00
2023-05-21T11:21:40.329Z,94678.00
2023-05-21T11:22:40.366Z,94680.00
2023-05-21T11:23:40.428Z,94678.00
2023-05-21T11:24:40.547Z,94681.00
2023-05-21T11:25:40.586Z,94677.00
2023-05-21T11:26:40.671Z,94671.00
2023-05-21T11:27:40.721Z,94674.00
2023-05-21T11:28:40.811Z,94676.00
2023-05-21T11:29:40.850Z,94674.00
2023-05-21T11:30:41.220Z,94676.00
2023-05-21T11:31:41.094Z,94670.00
2023-05-21T11:32:41.172Z,94673.00
2023-05-21T11:33:41.108Z,94671.00
2023-05-21T11:34:41.187Z,94670.00
2023-05-21T11:35:41.244Z,94669.00
2023-05-21T11:36:41.293Z,94669.00
2023-05-21T11:37:41.351Z,94668.00
2023-05-21T11:38:41.402Z,94667.00
2023-05-21T11:39:41.501Z,94664.00
2023-05-21T11:40:41.546Z,94663.00
2023-05-21T11:41:41.619Z,94665.00
2023-05-21T11:42:41.694Z,94669.00
2023-05-21T11:43:41.750Z,94665.00
2023-05-21T11:44:41.840Z,94667.00